createdAt,value
2018-07-15T00:01:35.999Z,101328.14
2018-07-15T00:04:04.321Z,101342.77
2018-07-15T00:06:32.634Z,101338.53
2018-07-15T00:09:00.961Z,101332.90
2018-07-15T00:11:29.303Z,101348.19
2018-07-15T00:13:57.612Z,101335.94
2018-07-15T00:16:25.367Z,101336.19
2018-07-15T00:18:54.267Z,101340.44
2018-07-15T00:21:22.588Z,101344.63
2018-07-15T00:23:50.354Z,101344.81
2018-07-15T00:26:19.267Z,101355.58
2018-07-15T00:28:47.580Z,101348.30
2018-07-15T00:31:15.904Z,101350.48
2018-07-15T00:33:44.229Z,101345.06
2018-07-15T00:36:11.967Z,101352.16
2018-07-15T00:38:40.865Z,101333.31
2018-07-15T00:41:09.174Z,101351.11
2018-07-15T00:43:36.917Z,101336.15
2018-07-15T00:46:05.816Z,101340.81
2018-07-15T00:48:33.557Z,101340.89
2018-07-15T00:51:02.208Z,101341.05
2018-07-15T00:53:30.755Z,101332.23
2018-07-15T00:55:59.078Z,101335.72
2018-07-15T00:58:27.399Z,101330.09
2018-07-15T01:00:55.737Z,101326.04
2018-07-15T01:03:24.052Z,101337.98
2018-07-15T01:05:52.371Z,101327.51
2018-07-15T01:08:20.685Z,101331.53
2018-07-15T01:10:49.009Z,101325.23
2018-07-15T01:13:17.337Z,101333.58
2018-07-15T01:15:45.082Z,101321.06
2018-07-15T01:18:13.999Z,101327.77
2018-07-15T01:20:42.318Z,101321.84
2018-07-15T01:23:10.635Z,101324.05
2018-07-15T01:25:38.388Z,101321.36
2018-07-15T01:28:07.292Z,101306.78
2018-07-15T01:30:35.597Z,101309.98
2018-07-15T01:33:03.346Z,101308.76
2018-07-15T01:35:32.254Z,101313.30
2018-07-15T01:38:00.568Z,101312.95
2018-07-15T01:40:28.897Z,101308.16
2018-07-15T01:42:57.225Z,101323.22
2018-07-15T01:45:25.555Z,101325.63
2018-07-15T01:47:53.294Z,101319.25
2018-07-15T01:50:22.196Z,101325.63
2018-07-15T01:52:50.523Z,101324.23
2018-07-15T01:55:18.280Z,101328.23
2018-07-15T01:57:47.191Z,101318.79
2018-07-15T02:00:15.521Z,101316.86
2018-07-15T02:02:43.903Z,101311.77
2018-07-15T02:05:12.213Z,101312.11
2018-07-15T02:07:40.533Z,101315.83
2018-07-15T02:10:08.780Z,101318.81
2018-07-15T02:12:36.599Z,101323.70
2018-07-15T02:15:05.494Z,101330.75
2018-07-15T02:17:33.826Z,101330.12
2018-07-15T02:20:01.567Z,101329.33
2018-07-15T02:22:30.467Z,101329.13
2018-07-15T02:24:58.789Z,101328.87
2018-07-15T02:27:26.529Z,101329.03
2018-07-15T02:29:54.846Z,101338.73
2018-07-15T02:32:23.167Z,101325.12
2018-07-15T02:34:51.492Z,101329.36
2018-07-15T02:37:20.392Z,101324.31
2018-07-15T02:39:48.715Z,101337.09
2018-07-15T02:42:17.041Z,101334.17
2018-07-15T02:44:44.783Z,101325.16
2018-07-15T02:47:13.689Z,101323.42
2018-07-15T02:49:42.011Z,101321.42
2018-07-15T02:52:09.751Z,101323.74
2018-07-15T02:54:38.085Z,101331.08
2018-07-15T02:57:06.396Z,101325.85
2018-07-15T02:59:35.291Z,101325.26
2018-07-15T03:02:03.602Z,101328.91
2018-07-15T03:04:31.975Z,101319.66
2018-07-15T03:07:00.288Z,101326.05
2018-07-15T03:09:28.623Z,101326.98
2018-07-15T03:11:56.942Z,101324.09
2018-07-15T03:14:25.271Z,101329.09
2018-07-15T03:16:53.591Z,101328.87
2018-07-15T03:19:21.902Z,101325.75
2018-07-15T03:21:50.225Z,101330.89
2018-07-15T03:24:18.547Z,101329.23
2018-07-15T03:26:46.869Z,101326.21
2018-07-15T03:29:15.192Z,101325.95
2018-07-15T03:31:43.505Z,101322.38
2018-07-15T03:34:11.836Z,101317.58
2018-07-15T03:36:40.152Z,101327.52
2018-07-15T03:39:08.487Z,101325.42
2018-07-15T03:41:36.812Z,101317.72
2018-07-15T03:44:04.719Z,101316.66
2018-07-15T03:46:33.454Z,101327.41
2018-07-15T03:49:01.186Z,101328.60
2018-07-15T03:51:30.096Z,101327.15
2018-07-15T03:53:58.416Z,101329.11
2018-07-15T03:56:26.749Z,101333.72
2018-07-15T03:58:55.062Z,101324.92
2018-07-15T04:01:23.374Z,101336.87
2018-07-15T04:03:51.698Z,101341.41
2018-07-15T04:06:20.052Z,101334.13
2018-07-15T04:08:47.925Z,101333.73
2018-07-15T04:11:16.678Z,101327.92
2018-07-15T04:13:45.004Z,101326.35
2018-07-15T04:16:12.743Z,101331.75
2018-07-15T04:18:41.062Z,101328.27
2018-07-15T04:21:09.960Z,101327.55
2018-07-15T04:23:38.289Z,101333.39
2018-07-15T04:26:06.300Z,101334.70
2018-07-15T04:28:34.357Z,101330.91
2018-07-15T04:31:02.818Z,101335.28
2018-07-15T04:33:31.084Z,101329.88
2018-07-15T04:35:59.309Z,101332.55
2018-07-15T04:38:28.206Z,101337.04
2018-07-15T04:40:56.538Z,101335.27
2018-07-15T04:43:24.859Z,101337.80
2018-07-15T04:45:53.177Z,101330.06
2018-07-15T04:48:20.930Z,101341.27
2018-07-15T04:50:49.839Z,101337.11
2018-07-15T04:53:17.570Z,101336.87
2018-07-15T04:55:46.461Z,101346.91
2018-07-15T04:58:14.800Z,101358.30
2018-07-15T05:00:43.119Z,101353.03
2018-07-15T05:03:11.442Z,101355.27
2018-07-15T05:05:39.766Z,101355.78
2018-07-15T05:08:07.542Z,101353.64
2018-07-15T05:10:36.438Z,101353.87
2018-07-15T05:13:04.771Z,101343.19
2018-07-15T05:15:33.072Z,101360.45
2018-07-15T05:18:01.405Z,101351.87
2018-07-15T05:20:29.136Z,101347.23
2018-07-15T05:22:58.037Z,101346.89
2018-07-15T05:25:26.369Z,101338.58
2018-07-15T05:27:54.093Z,101349.17
2018-07-15T05:30:22.990Z,101348.09
2018-07-15T05:32:51.309Z,101350.17
2018-07-15T05:35:19.054Z,101354.91
2018-07-15T05:37:47.956Z,101355.09
2018-07-15T05:40:16.290Z,101352.37
2018-07-15T05:42:44.032Z,101347.20
2018-07-15T05:45:12.938Z,101343.95
2018-07-15T05:47:41.257Z,101351.33
2018-07-15T05:50:09.586Z,101352.00
2018-07-15T05:52:37.918Z,101359.73
2018-07-15T05:55:06.238Z,101360.14
2018-07-15T05:57:34.005Z,101357.16
2018-07-15T06:00:02.898Z,101358.95
2018-07-15T06:02:31.232Z,101360.20
2018-07-15T06:04:58.973Z,101356.41
2018-07-15T06:07:27.876Z,101358.09
2018-07-15T06:09:56.240Z,101364.81
2018-07-15T06:12:30.353Z,101359.20
2018-07-15T06:14:58.693Z,101356.34
2018-07-15T06:17:27.051Z,101365.17
2018-07-15T06:19:55.342Z,101363.73
2018-07-15T06:22:23.093Z,101360.53
2018-07-15T06:24:51.414Z,101359.25
2018-07-15T06:27:20.318Z,101367.53
2018-07-15T06:29:48.769Z,101359.28
2018-07-15T06:32:17.122Z,101357.78
2018-07-15T06:34:45.442Z,101353.58
2018-07-15T06:37:14.353Z,101352.09
2018-07-15T06:39:42.681Z,101351.55
2018-07-15T06:42:11.014Z,101356.95
2018-07-15T06:44:38.763Z,101351.47
2018-07-15T06:47:07.665Z,101356.02
2018-07-15T06:49:35.980Z,101347.06
2018-07-15T06:52:04.301Z,101357.73
2018-07-15T06:54:32.625Z,101348.93
2018-07-15T06:57:00.976Z,101351.12
2018-07-15T06:59:29.785Z,101353.86
2018-07-15T07:01:58.109Z,101356.75
2018-07-15T07:04:26.432Z,101356.69
2018-07-15T07:06:54.748Z,101361.38
2018-07-15T07:09:22.488Z,101356.13
2018-07-15T07:11:51.417Z,101354.66
2018-07-15T07:14:19.847Z,101359.80
2018-07-15T07:16:48.103Z,101364.61
2018-07-15T07:19:15.884Z,101360.49
2018-07-15T07:21:44.800Z,101364.52
2018-07-15T07:24:12.512Z,101371.58
2018-07-15T07:26:41.437Z,101363.17
2018-07-15T07:29:09.763Z,101360.20
2018-07-15T07:31:38.085Z,101357.23
2018-07-15T07:34:06.433Z,101352.73
2018-07-15T07:36:34.752Z,101357.53
2018-07-15T07:39:03.081Z,101361.86
2018-07-15T07:41:30.835Z,101360.28
2018-07-15T07:43:59.740Z,101363.34
2018-07-15T07:46:28.059Z,101361.95
2018-07-15T07:49:04.985Z,101365.37
2018-07-15T07:51:30.121Z,101370.89
2018-07-15T07:53:58.484Z,101372.03
2018-07-15T07:56:26.808Z,101367.02
2018-07-15T07:58:55.138Z,101376.23
2018-07-15T08:01:23.455Z,101369.53
2018-07-15T08:03:51.781Z,101375.20
2018-07-15T08:06:20.102Z,101368.13
2018-07-15T08:08:47.852Z,101366.11
2018-07-15T08:11:16.517Z,101371.17
2018-07-15T08:13:45.108Z,101376.25
2018-07-15T08:16:13.438Z,101376.69
2018-07-15T08:18:41.770Z,101380.02
2018-07-15T08:21:10.098Z,101386.17
2018-07-15T08:23:38.561Z,101386.16
2018-07-15T08:26:13.417Z,101383.67
2018-07-15T08:28:42.199Z,101382.33
2018-07-15T08:31:11.036Z,101382.70
2018-07-15T08:33:39.556Z,101388.03
2018-07-15T08:36:07.292Z,101397.95
2018-07-15T08:38:36.348Z,101382.42
2018-07-15T08:41:04.678Z,101396.04
2018-07-15T08:43:33.008Z,101401.02
2018-07-15T08:46:02.345Z,101398.35
2018-07-15T08:48:53.985Z,101396.69
2018-07-15T08:54:09.472Z,101392.64
2018-07-15T08:56:38.648Z,101389.80
2018-07-15T08:59:06.040Z,101401.16
2018-07-15T09:01:49.847Z,101403.45
2018-07-15T09:04:03.942Z,101401.34
2018-07-15T09:06:31.745Z,101397.06
2018-07-15T09:09:00.686Z,101398.36
2018-07-15T09:11:28.436Z,101401.36
2018-07-15T09:13:57.581Z,101405.05
2018-07-15T09:16:25.423Z,101404.26
2018-07-15T09:18:53.811Z,101407.46
2018-07-15T09:21:22.748Z,101403.18
2018-07-15T09:23:51.104Z,101404.07
2018-07-15T09:26:19.450Z,101392.26
2018-07-15T09:28:49.957Z,101400.03
2018-07-15T09:31:19.213Z,101399.81
2018-07-15T09:33:47.693Z,101396.10
2018-07-15T09:36:17.203Z,101396.93
2018-07-15T09:38:45.426Z,101402.19
2018-07-15T09:41:14.809Z,101398.48
2018-07-15T09:43:42.685Z,101403.08
2018-07-15T09:46:11.011Z,101400.22
2018-07-15T09:48:39.530Z,101397.85
2018-07-15T09:51:07.813Z,101393.59
2018-07-15T09:53:36.149Z,101400.31
2018-07-15T09:56:03.906Z,101394.88
2018-07-15T09:58:32.814Z,101394.47
2018-07-15T10:01:01.164Z,101390.82
2018-07-15T10:03:29.499Z,101388.58
2018-07-15T10:05:57.253Z,101387.13
2018-07-15T10:08:26.175Z,101383.47
2018-07-15T10:10:53.986Z,101384.88
2018-07-15T10:13:22.862Z,101379.36
2018-07-15T10:15:51.293Z,101389.84
2018-07-15T10:18:19.043Z,101383.05
2018-07-15T10:20:47.380Z,101381.97
2018-07-15T10:23:15.710Z,101383.69
2018-07-15T10:25:44.047Z,101384.37
2018-07-15T10:28:12.948Z,101380.67
2018-07-15T10:30:41.297Z,101378.98
2018-07-15T10:33:09.645Z,101384.81
2018-07-15T10:35:37.948Z,101390.44
2018-07-15T10:38:06.923Z,101393.23
2018-07-15T10:40:34.960Z,101390.77
2018-07-15T10:43:03.278Z,101393.45
2018-07-15T10:45:31.616Z,101393.86
2018-07-15T10:47:59.936Z,101392.13
2018-07-15T10:50:27.680Z,101402.55
2018-07-15T10:52:56.606Z,101392.44
2018-07-15T10:55:24.322Z,101395.59
2018-07-15T10:57:53.242Z,101399.59
2018-07-15T11:00:21.026Z,101397.73
2018-07-15T11:02:49.922Z,101398.33
2018-07-15T11:05:25.398Z,101397.64
2018-07-15T11:07:53.744Z,101392.33
2018-07-15T11:10:21.501Z,101388.45
2018-07-15T11:12:49.935Z,101388.14
2018-07-15T11:15:18.379Z,101389.06
2018-07-15T11:17:47.097Z,101393.66
2018-07-15T11:20:15.410Z,101393.39
2018-07-15T11:22:43.733Z,101401.45
2018-07-15T11:25:12.055Z,101396.36
2018-07-15T11:27:40.377Z,101390.70
2018-07-15T11:30:08.698Z,101406.86
2018-07-15T11:32:37.022Z,101398.06
2018-07-15T11:35:04.925Z,101391.27
2018-07-15T11:37:33.117Z,101395.06
2018-07-15T11:40:02.026Z,101392.98
2018-07-15T11:42:30.436Z,101388.09
2018-07-15T11:44:58.197Z,101393.51
2018-07-15T11:47:27.154Z,101385.81
2018-07-15T11:50:01.703Z,101384.02
2018-07-15T11:52:30.062Z,101384.85
2018-07-15T11:54:58.374Z,101383.23
2018-07-15T11:57:27.013Z,101379.87
2018-07-15T11:59:55.371Z,101377.55
2018-07-15T12:02:24.047Z,101382.87
2018-07-15T12:04:52.163Z,101381.54
2018-07-15T12:07:20.539Z,101371.75
2018-07-15T12:09:54.530Z,101371.99
2018-07-15T12:12:22.948Z,101385.20
2018-07-15T12:14:51.251Z,101370.66
2018-07-15T12:17:18.999Z,101363.22
2018-07-15T12:19:48.666Z,101368.35
2018-07-15T12:22:16.993Z,101367.44
2018-07-15T12:24:46.323Z,101362.06
2018-07-15T12:27:14.926Z,101363.48
2018-07-15T12:29:43.560Z,101359.70
2018-07-15T12:32:14.816Z,101356.53
2018-07-15T12:37:17.594Z,101362.48
2018-07-15T12:39:45.933Z,101366.63
2018-07-15T12:42:13.773Z,101365.06
2018-07-15T12:44:42.510Z,101374.28
2018-07-15T12:47:11.410Z,101366.98
2018-07-15T12:49:39.204Z,101366.27
2018-07-15T12:52:08.200Z,101364.65
2018-07-15T12:54:36.502Z,101358.77
2018-07-15T12:59:53.399Z,101360.80
2018-07-15T13:02:21.304Z,101352.70
2018-07-15T13:04:50.037Z,101354.91
2018-07-15T13:07:19.582Z,101349.19
2018-07-15T13:09:47.698Z,101348.59
2018-07-15T13:12:16.243Z,101349.63
2018-07-15T13:14:44.644Z,101353.90
2018-07-15T13:17:12.954Z,101343.66
2018-07-15T13:19:41.275Z,101339.08
2018-07-15T13:22:09.905Z,101338.43
2018-07-15T13:24:38.502Z,101333.80
2018-07-15T13:27:06.889Z,101336.66
2018-07-15T13:29:35.073Z,101332.39
2018-07-15T13:32:03.344Z,101338.22
2018-07-15T13:34:31.675Z,101341.48
2018-07-15T13:36:59.997Z,101335.75
2018-07-15T13:39:28.322Z,101335.83
2018-07-15T13:41:56.182Z,101334.14
2018-07-15T13:44:25.024Z,101340.48
2018-07-15T13:46:53.355Z,101345.81
2018-07-15T13:49:21.396Z,101357.34
2018-07-15T13:51:50.013Z,101355.06
2018-07-15T13:54:17.934Z,101357.69
2018-07-15T13:56:46.660Z,101354.77
2018-07-15T13:59:14.989Z,101359.52
2018-07-15T14:01:43.355Z,101352.80
2018-07-15T14:04:11.170Z,101355.45
2018-07-15T14:06:40.035Z,101347.18
2018-07-15T14:09:09.247Z,101358.63
2018-07-15T14:11:37.542Z,101351.41
2018-07-15T14:14:05.388Z,101357.95
2018-07-15T14:16:43.198Z,101358.42
2018-07-15T14:19:11.592Z,101361.00
2018-07-15T14:21:39.979Z,101356.89
2018-07-15T14:24:08.320Z,101359.97
2018-07-15T14:26:37.039Z,101364.40
2018-07-15T14:31:38.705Z,101366.09
2018-07-15T14:34:08.395Z,101367.84
2018-07-15T14:36:36.747Z,101368.69
2018-07-15T14:39:05.195Z,101371.39
2018-07-15T14:41:34.323Z,101372.40
2018-07-15T14:44:02.572Z,101376.34
2018-07-15T14:46:31.015Z,101375.82
2018-07-15T14:48:59.329Z,101386.09
2018-07-15T14:51:27.656Z,101387.97
2018-07-15T14:53:55.638Z,101389.58
2018-07-15T14:56:24.311Z,101388.89
2018-07-15T14:58:52.777Z,101394.59
2018-07-15T15:01:21.203Z,101395.00
2018-07-15T15:03:49.311Z,101384.54
2018-07-15T15:06:17.284Z,101379.98
2018-07-15T15:08:46.691Z,101381.55
2018-07-15T15:11:15.007Z,101384.11
2018-07-15T15:13:43.911Z,101384.20
2018-07-15T15:16:12.303Z,101383.13
2018-07-15T15:18:40.571Z,101378.86
2018-07-15T15:21:08.879Z,101371.36
2018-07-15T15:23:37.230Z,101372.89
2018-07-15T15:26:05.561Z,101377.20
2018-07-15T15:28:33.895Z,101372.23
2018-07-15T15:31:02.226Z,101381.58
2018-07-15T15:33:30.531Z,101380.41
2018-07-15T15:35:58.867Z,101382.84
2018-07-15T15:38:26.630Z,101382.75
2018-07-15T15:40:55.536Z,101385.59
2018-07-15T15:46:03.303Z,101399.33
2018-07-15T15:48:32.203Z,101402.84
2018-07-15T15:51:00.572Z,101408.29
2018-07-15T15:53:28.336Z,101412.45
2018-07-15T15:55:57.249Z,101408.84
2018-07-15T15:58:25.580Z,101414.20
2018-07-15T16:00:53.899Z,101412.69
2018-07-15T16:03:22.278Z,101410.47
2018-07-15T16:05:50.605Z,101411.97
2018-07-15T16:08:18.367Z,101402.29
2018-07-15T16:10:46.691Z,101401.58
2018-07-15T16:13:15.587Z,101402.81
2018-07-15T16:15:43.430Z,101399.00
2018-07-15T16:18:12.251Z,101393.94
2018-07-15T16:20:40.573Z,101396.05
2018-07-15T16:23:08.919Z,101400.64
2018-07-15T16:25:36.826Z,101399.75
2018-07-15T16:28:05.711Z,101399.58
2018-07-15T16:30:34.033Z,101392.84
2018-07-15T16:33:02.367Z,101393.64
2018-07-15T16:35:30.898Z,101394.19
2018-07-15T16:37:59.025Z,101393.05
2018-07-15T16:40:27.365Z,101395.76
2018-07-15T16:42:55.703Z,101396.05
2018-07-15T16:45:24.031Z,101397.95
2018-07-15T16:47:52.363Z,101400.85
2018-07-15T16:50:20.118Z,101402.22
2018-07-15T16:52:50.500Z,101405.03
2018-07-15T16:55:18.244Z,101397.17
2018-07-15T16:57:46.585Z,101394.52
2018-07-15T17:00:27.621Z,101395.97
2018-07-15T17:02:56.867Z,101393.41
2018-07-15T17:05:26.555Z,101391.73
2018-07-15T17:07:54.190Z,101398.70
2018-07-15T17:10:22.519Z,101399.53
2018-07-15T17:12:51.429Z,101388.36
2018-07-15T17:15:19.915Z,101385.97
2018-07-15T17:17:48.211Z,101384.80
2018-07-15T17:20:17.487Z,101387.88
2018-07-15T17:22:45.288Z,101384.41
2018-07-15T17:25:17.931Z,101384.06
2018-07-15T17:27:48.050Z,101383.55
2018-07-15T17:30:16.664Z,101385.84
2018-07-15T17:32:45.686Z,101392.73
2018-07-15T17:35:14.440Z,101388.70
2018-07-15T17:37:44.317Z,101391.40
2018-07-15T17:40:11.397Z,101389.02
2018-07-15T17:42:39.922Z,101386.53
2018-07-15T17:45:10.258Z,101381.31
2018-07-15T17:47:40.426Z,101382.63
2018-07-15T17:50:08.819Z,101377.99
2018-07-15T17:52:41.251Z,101383.19
2018-07-15T17:57:49.340Z,101378.41
2018-07-15T18:00:25.165Z,101371.78
2018-07-15T18:02:54.244Z,101366.52
2018-07-15T18:05:22.599Z,101366.06
2018-07-15T18:07:51.944Z,101363.53
2018-07-15T18:10:21.330Z,101357.62
2018-07-15T18:12:49.363Z,101355.33
2018-07-15T18:15:18.938Z,101350.23
2018-07-15T18:17:46.739Z,101353.34
2018-07-15T18:20:15.222Z,101354.70
2018-07-15T18:22:44.431Z,101353.35
2018-07-15T18:25:21.251Z,101356.89
2018-07-15T18:27:49.677Z,101359.41
2018-07-15T18:30:17.999Z,101369.20
2018-07-15T18:32:46.333Z,101366.78
2018-07-15T18:35:14.073Z,101374.75
2018-07-15T18:37:43.143Z,101381.32
2018-07-15T18:40:13.115Z,101386.16
2018-07-15T18:42:42.022Z,101385.26
2018-07-15T18:45:13.803Z,101391.62
2018-07-15T18:47:42.145Z,101389.44
2018-07-15T18:50:11.409Z,101392.82
2018-07-15T18:52:39.163Z,101392.97
2018-07-15T18:55:08.772Z,101391.38
2018-07-15T18:57:37.139Z,101391.94
2018-07-15T19:00:06.441Z,101386.81
2018-07-15T19:02:35.318Z,101389.14
2018-07-15T19:05:03.634Z,101389.68
2018-07-15T19:07:32.310Z,101388.80
2018-07-15T19:10:01.052Z,101382.96
2018-07-15T19:12:29.454Z,101375.84
2018-07-15T19:14:58.747Z,101379.52
2018-07-15T19:17:27.120Z,101382.73
2018-07-15T19:19:54.861Z,101381.92
2018-07-15T19:22:23.945Z,101379.69
2018-07-15T19:24:52.422Z,101378.00
2018-07-15T19:27:20.833Z,101375.29
2018-07-15T19:29:49.163Z,101374.58
2018-07-15T19:32:17.598Z,101374.16
2018-07-15T19:34:49.428Z,101373.45
2018-07-15T19:37:17.233Z,101376.25
2018-07-15T19:39:46.182Z,101372.97
2018-07-15T19:42:14.522Z,101374.88
2018-07-15T19:44:42.920Z,101370.98
2018-07-15T19:47:11.265Z,101368.42
2018-07-15T19:49:39.744Z,101375.98
2018-07-15T19:52:08.302Z,101377.11
2018-07-15T19:54:36.416Z,101373.61
2018-07-15T19:57:09.151Z,101377.16
2018-07-15T19:59:37.707Z,101373.73
2018-07-15T20:02:06.079Z,101378.06
2018-07-15T20:04:34.408Z,101378.11
2018-07-15T20:07:02.769Z,101374.27
2018-07-15T20:09:31.266Z,101366.67
2018-07-15T20:12:05.312Z,101371.19
2018-07-15T20:14:33.647Z,101366.27
2018-07-15T20:17:02.250Z,101368.69
2018-07-15T20:19:30.594Z,101368.07
2018-07-15T20:21:59.087Z,101372.03
2018-07-15T20:24:27.412Z,101371.04
2018-07-15T20:26:55.850Z,101368.09
2018-07-15T20:29:24.290Z,101372.77
2018-07-15T20:31:52.709Z,101371.56
2018-07-15T20:34:21.061Z,101378.80
2018-07-15T20:36:48.815Z,101373.13
2018-07-15T20:39:17.979Z,101378.28
2018-07-15T20:41:46.163Z,101391.48
2018-07-15T20:44:14.518Z,101387.33
2018-07-15T20:46:42.951Z,101387.81
2018-07-15T20:49:12.201Z,101387.09
2018-07-15T20:51:40.525Z,101382.31
2018-07-15T20:54:08.979Z,101386.73
2018-07-15T20:56:36.752Z,101386.77
2018-07-15T20:59:05.666Z,101391.78
2018-07-15T21:01:33.983Z,101391.98
2018-07-15T21:04:02.313Z,101389.42
2018-07-15T21:06:30.634Z,101390.72
2018-07-15T21:08:58.369Z,101385.39
2018-07-15T21:11:27.507Z,101384.05
2018-07-15T21:13:55.615Z,101381.38
2018-07-15T21:16:23.947Z,101378.61
2018-07-15T21:18:53.169Z,101381.33
2018-07-15T21:21:21.689Z,101382.06
2018-07-15T21:23:51.851Z,101373.36
2018-07-15T21:26:20.188Z,101379.51
2018-07-15T21:28:48.509Z,101378.42
2018-07-15T21:31:16.304Z,101381.59
2018-07-15T21:33:46.115Z,101393.67
2018-07-15T21:36:14.432Z,101395.30
2018-07-15T21:38:43.093Z,101397.55
2018-07-15T21:41:11.506Z,101401.38
2018-07-15T21:43:40.398Z,101398.39
2018-07-15T21:46:08.144Z,101395.61
2018-07-15T21:48:37.111Z,101407.23
2018-07-15T21:51:05.442Z,101413.01
2018-07-15T21:53:33.759Z,101413.48
2018-07-15T21:56:02.086Z,101407.36
2018-07-15T21:58:30.151Z,101404.11
2018-07-15T22:00:58.740Z,101400.91
2018-07-15T22:03:27.082Z,101404.08
2018-07-15T22:05:55.398Z,101399.97
2018-07-15T22:08:29.765Z,101395.87
2018-07-15T22:10:58.702Z,101392.03
2018-07-15T22:13:27.033Z,101392.11
2018-07-15T22:15:55.363Z,101400.17
2018-07-15T22:18:23.106Z,101396.59
2018-07-15T22:20:51.507Z,101396.52
2018-07-15T22:23:20.418Z,101401.74
2018-07-15T22:25:48.940Z,101403.95
2018-07-15T22:28:17.844Z,101399.67
2018-07-15T22:30:46.757Z,101403.76
2018-07-15T22:33:15.094Z,101401.30
2018-07-15T22:35:43.439Z,101391.20
2018-07-15T22:38:11.335Z,101396.66
2018-07-15T22:40:40.097Z,101399.70
2018-07-15T22:43:08.431Z,101402.26
2018-07-15T22:45:36.174Z,101401.34
2018-07-15T22:48:05.325Z,101397.62
2018-07-15T22:50:34.232Z,101397.92
2018-07-15T22:53:02.561Z,101398.00
2018-07-15T22:55:30.297Z,101395.53
2018-07-15T22:57:58.625Z,101393.13
2018-07-15T23:00:27.533Z,101389.67
2018-07-15T23:02:55.277Z,101390.16
2018-07-15T23:05:35.390Z,101389.91
2018-07-15T23:08:03.767Z,101391.45
2018-07-15T23:10:32.499Z,101389.15
2018-07-15T23:13:00.964Z,101386.50
2018-07-15T23:15:29.290Z,101387.27
2018-07-15T23:17:58.382Z,101387.70
2018-07-15T23:20:26.733Z,101386.63
2018-07-15T23:22:55.066Z,101378.91
2018-07-15T23:25:24.363Z,101382.76
2018-07-15T23:27:52.060Z,101385.23
2018-07-15T23:30:20.651Z,101379.86
2018-07-15T23:32:48.977Z,101379.18
2018-07-15T23:35:16.729Z,101376.64
2018-07-15T23:37:46.000Z,101379.62
2018-07-15T23:40:14.342Z,101380.22
2018-07-15T23:42:42.840Z,101380.63
2018-07-15T23:45:10.868Z,101372.03
2018-07-15T23:47:39.780Z,101371.49
2018-07-15T23:50:07.758Z,101367.78
2018-07-15T23:52:35.874Z,101374.77
2018-07-15T23:55:04.795Z,101376.66
2018-07-15T23:57:33.127Z,101369.16
